createdAt,value
2017-12-02T00:00:30.190Z,16.10
2017-12-02T00:02:58.485Z,15.47
2017-12-02T00:05:26.743Z,18.63
2017-12-02T00:07:55.053Z,14.33
2017-12-02T00:10:23.314Z,17.23
2017-12-02T00:12:52.498Z,21.65
2017-12-02T00:15:20.971Z,19.87
2017-12-02T00:17:49.238Z,16.17
2017-12-02T00:20:17.525Z,20.37
2017-12-02T00:22:45.844Z,15.90
2017-12-02T00:25:14.218Z,19.17
2017-12-02T00:27:48.282Z,15.83
2017-12-02T00:30:16.558Z,21.02
2017-12-02T00:32:44.868Z,20.53
2017-12-02T00:35:13.169Z,16.12
2017-12-02T00:37:41.446Z,16.20
2017-12-02T00:40:09.707Z,16.10
2017-12-02T00:42:38.597Z,15.70
2017-12-02T00:45:06.896Z,17.17
2017-12-02T00:47:35.180Z,19.70
2017-12-02T00:50:04.378Z,19.50
2017-12-02T00:52:32.666Z,15.60
2017-12-02T00:55:00.973Z,19.10
2017-12-02T00:57:29.234Z,14.85
2017-12-02T00:59:57.515Z,17.13
2017-12-02T01:02:25.815Z,16.43
2017-12-02T01:04:54.114Z,18.03
2017-12-02T01:07:22.403Z,17.25
2017-12-02T01:09:50.692Z,16.73
2017-12-02T01:12:18.991Z,16.73
2017-12-02T01:14:47.270Z,15.60
2017-12-02T01:17:15.555Z,20.67
2017-12-02T01:19:43.847Z,15.60
2017-12-02T01:22:12.149Z,17.67
2017-12-02T01:24:40.411Z,22.20
2017-12-02T01:27:08.689Z,24.83
2017-12-02T01:29:36.955Z,20.90
2017-12-02T01:32:05.266Z,17.53
2017-12-02T01:34:33.550Z,15.60
2017-12-02T01:37:01.808Z,15.10
2017-12-02T01:39:30.098Z,13.63
2017-12-02T01:41:58.410Z,14.57
2017-12-02T01:44:26.685Z,12.82
2017-12-02T01:46:54.968Z,15.73
2017-12-02T01:49:23.280Z,17.53
2017-12-02T01:51:51.874Z,14.37
2017-12-02T01:54:20.172Z,14.80
2017-12-02T01:56:48.459Z,15.63
2017-12-02T01:59:16.738Z,12.73
2017-12-02T02:01:45.045Z,15.50
2017-12-02T02:04:13.329Z,14.95
2017-12-02T02:06:41.619Z,16.97
2017-12-02T02:09:09.892Z,14.30
2017-12-02T02:11:38.177Z,14.17
2017-12-02T02:14:06.445Z,14.17
2017-12-02T02:16:34.727Z,16.60
2017-12-02T02:19:03.096Z,14.97
2017-12-02T02:21:31.922Z,18.10
2017-12-02T02:24:00.230Z,15.93
2017-12-02T02:26:28.511Z,15.60
2017-12-02T02:28:56.786Z,14.40
2017-12-02T02:31:25.099Z,14.57
2017-12-02T02:33:53.420Z,13.37
2017-12-02T02:36:21.672Z,13.27
2017-12-02T02:38:49.956Z,15.27
2017-12-02T02:41:18.231Z,13.33
2017-12-02T02:43:46.525Z,13.73
2017-12-02T02:46:14.821Z,16.17
2017-12-02T02:48:43.119Z,15.63
2017-12-02T02:51:11.415Z,11.90
2017-12-02T02:53:39.715Z,14.17
2017-12-02T02:56:07.995Z,14.70
2017-12-02T02:58:36.333Z,13.37
2017-12-02T03:01:05.710Z,12.50
2017-12-02T03:03:34.038Z,14.67
2017-12-02T03:06:02.311Z,12.63
2017-12-02T03:08:30.576Z,11.13
2017-12-02T03:10:58.851Z,13.50
2017-12-02T03:13:27.236Z,14.93
2017-12-02T03:15:55.522Z,14.20
2017-12-02T03:18:23.793Z,13.67
2017-12-02T03:20:52.763Z,16.27
2017-12-02T03:23:21.035Z,12.73
2017-12-02T03:25:49.337Z,13.93
2017-12-02T03:28:17.625Z,11.60
2017-12-02T03:30:45.923Z,13.80
2017-12-02T03:33:14.223Z,15.00
2017-12-02T03:35:42.493Z,14.80
2017-12-02T03:38:10.810Z,15.93
2017-12-02T03:40:40.044Z,14.00
2017-12-02T03:43:08.379Z,13.83
2017-12-02T03:45:36.863Z,13.40
2017-12-02T03:48:06.071Z,14.73
2017-12-02T03:50:34.342Z,12.70
2017-12-02T03:53:02.674Z,12.80
2017-12-02T03:55:30.955Z,15.20
2017-12-02T03:57:59.260Z,13.20
2017-12-02T04:00:27.520Z,15.33
2017-12-02T04:02:55.806Z,14.67
2017-12-02T04:05:24.128Z,18.15
2017-12-02T04:07:52.509Z,15.87
2017-12-02T04:10:20.786Z,15.07
2017-12-02T04:12:49.060Z,14.30
2017-12-02T04:15:17.376Z,14.70
2017-12-02T04:17:45.646Z,16.30
2017-12-02T04:20:13.944Z,16.77
2017-12-02T04:22:42.215Z,16.70
2017-12-02T04:25:10.526Z,16.33
2017-12-02T04:27:38.820Z,14.03
2017-12-02T04:30:07.248Z,20.20
2017-12-02T04:32:35.526Z,17.50
2017-12-02T04:35:03.816Z,16.13
2017-12-02T04:37:32.124Z,15.23
2017-12-02T04:40:00.386Z,13.83
2017-12-02T04:42:28.681Z,14.93
2017-12-02T04:44:56.956Z,15.53
2017-12-02T04:47:25.259Z,14.80
2017-12-02T04:49:53.543Z,13.80
2017-12-02T04:52:21.987Z,21.37
2017-12-02T04:54:50.274Z,14.53
2017-12-02T04:57:18.551Z,14.65
2017-12-02T04:59:46.860Z,14.20
2017-12-02T05:02:15.131Z,14.40
2017-12-02T05:04:43.431Z,15.07
2017-12-02T05:07:11.740Z,15.27
2017-12-02T05:09:39.989Z,15.40
2017-12-02T05:12:08.326Z,13.80
2017-12-02T05:14:36.644Z,13.60
2017-12-02T05:17:05.102Z,14.10
2017-12-02T05:19:33.382Z,16.90
2017-12-02T05:22:01.675Z,15.67
2017-12-02T05:24:29.991Z,15.80
2017-12-02T05:26:58.271Z,15.10
2017-12-02T05:29:26.550Z,15.32
2017-12-02T05:31:54.850Z,13.63
2017-12-02T05:34:23.137Z,12.73
2017-12-02T05:36:51.654Z,14.17
2017-12-02T05:39:19.948Z,13.03
2017-12-02T05:41:48.226Z,14.07
2017-12-02T05:44:16.527Z,14.13
2017-12-02T05:46:44.781Z,12.50
2017-12-02T05:49:13.104Z,11.47
2017-12-02T05:51:41.459Z,13.57
2017-12-02T05:54:09.733Z,12.15
2017-12-02T05:56:38.014Z,14.40
2017-12-02T05:59:06.280Z,16.33
2017-12-02T06:01:34.571Z,15.13
2017-12-02T06:04:02.839Z,14.30
2017-12-02T06:06:31.131Z,16.50
2017-12-02T06:08:59.431Z,15.90
2017-12-02T06:11:27.704Z,14.70
2017-12-02T06:13:55.982Z,12.90
2017-12-02T06:16:24.295Z,14.70
2017-12-02T06:18:52.546Z,15.97
2017-12-02T06:21:20.823Z,17.30
2017-12-02T06:23:49.319Z,17.98
2017-12-02T06:26:17.603Z,15.00
2017-12-02T06:28:45.906Z,16.33
2017-12-02T06:31:14.207Z,21.20
2017-12-02T06:33:42.476Z,18.97
2017-12-02T06:36:10.766Z,19.30
2017-12-02T06:38:39.039Z,19.03
2017-12-02T06:41:07.422Z,16.70
2017-12-02T06:43:35.696Z,19.57
2017-12-02T06:46:05.034Z,17.18
2017-12-02T06:48:33.319Z,18.60
2017-12-02T06:51:01.625Z,19.77
2017-12-02T06:53:29.911Z,18.07
2017-12-02T06:55:58.247Z,17.73
2017-12-02T06:58:26.544Z,19.97
2017-12-02T07:00:54.826Z,16.60
2017-12-02T07:03:23.927Z,19.63
2017-12-02T07:05:52.204Z,15.30
2017-12-02T07:08:20.497Z,13.60
2017-12-02T07:10:48.790Z,15.03
2017-12-02T07:13:17.089Z,18.73
2017-12-02T07:15:45.343Z,16.17
2017-12-02T07:18:13.709Z,16.35
2017-12-02T07:20:41.968Z,19.50
2017-12-02T07:23:10.327Z,17.27
2017-12-02T07:25:38.585Z,18.00
2017-12-02T07:28:06.935Z,16.23
2017-12-02T07:30:35.233Z,15.90
2017-12-02T07:33:03.508Z,18.83
2017-12-02T07:35:31.872Z,15.00
2017-12-02T07:38:00.128Z,17.12
2017-12-02T07:40:28.411Z,17.57
2017-12-02T07:42:56.676Z,16.62
2017-12-02T07:45:24.972Z,15.73
2017-12-02T07:47:53.241Z,19.87
2017-12-02T07:50:22.212Z,18.00
2017-12-02T07:52:56.419Z,14.70
2017-12-02T07:55:24.729Z,18.43
2017-12-02T07:57:52.991Z,16.90
2017-12-02T08:00:21.252Z,18.45
2017-12-02T08:02:49.607Z,16.43
2017-12-02T08:05:23.964Z,22.20
2017-12-02T08:07:52.309Z,17.00
2017-12-02T08:10:23.406Z,18.23
2017-12-02T08:12:51.684Z,16.63
2017-12-02T08:15:20.083Z,17.10
2017-12-02T08:17:48.406Z,18.77
2017-12-02T08:20:16.715Z,15.33
2017-12-02T08:22:45.012Z,18.73
2017-12-02T08:25:13.322Z,18.20
2017-12-02T08:27:41.626Z,21.33
2017-12-02T08:30:09.885Z,18.70
2017-12-02T08:32:38.210Z,18.40
2017-12-02T08:35:06.511Z,19.93
2017-12-02T08:37:35.652Z,20.50
2017-12-02T08:40:04.035Z,19.00
2017-12-02T08:42:32.277Z,18.17
2017-12-02T08:45:00.575Z,17.00
2017-12-02T08:47:28.874Z,19.13
2017-12-02T08:49:57.234Z,20.10
2017-12-02T08:52:25.487Z,26.90
2017-12-02T08:54:53.787Z,19.90
2017-12-02T08:57:22.127Z,21.62
2017-12-02T08:59:50.442Z,21.80
2017-12-02T09:02:18.791Z,32.97
2017-12-02T09:04:47.066Z,21.50
2017-12-02T09:07:15.456Z,21.43
2017-12-02T09:09:43.723Z,19.23
2017-12-02T09:12:11.997Z,19.40
2017-12-02T09:14:40.280Z,22.27
2017-12-02T09:17:08.612Z,18.10
2017-12-02T09:19:36.938Z,16.60
2017-12-02T09:22:05.206Z,17.30
2017-12-02T09:24:33.484Z,19.00
2017-12-02T09:27:01.803Z,17.13
2017-12-02T09:29:30.040Z,18.07
2017-12-02T09:31:58.359Z,23.20
2017-12-02T09:34:26.657Z,19.80
2017-12-02T09:36:54.956Z,20.77
2017-12-02T09:39:23.246Z,21.97
2017-12-02T09:41:51.515Z,17.77
2017-12-02T09:44:19.828Z,17.05
2017-12-02T09:46:48.166Z,18.13
2017-12-02T09:49:22.418Z,27.53
2017-12-02T09:51:50.780Z,19.20
2017-12-02T09:54:19.042Z,24.25
2017-12-02T09:56:53.403Z,21.30
2017-12-02T09:59:21.721Z,23.77
2017-12-02T10:01:50.079Z,18.90
2017-12-02T10:04:18.099Z,25.80
2017-12-02T10:06:46.387Z,23.33
2017-12-02T10:09:14.647Z,25.37
2017-12-02T10:11:42.932Z,21.77
2017-12-02T10:14:11.207Z,22.17
2017-12-02T10:16:39.487Z,22.17
2017-12-02T10:19:07.761Z,24.50
2017-12-02T10:21:36.134Z,21.60
2017-12-02T10:24:05.272Z,21.33
2017-12-02T10:26:33.607Z,25.50
2017-12-02T10:31:34.642Z,25.17
2017-12-02T10:34:03.126Z,28.97
2017-12-02T10:36:31.381Z,21.95
2017-12-02T10:38:59.686Z,22.70
2017-12-02T10:41:27.968Z,22.67
2017-12-02T10:43:58.065Z,23.80
2017-12-02T10:46:26.401Z,27.47
2017-12-02T10:48:54.717Z,24.00
2017-12-02T10:51:23.147Z,22.77
2017-12-02T10:53:52.098Z,21.80
2017-12-02T10:56:20.388Z,21.63
2017-12-02T10:58:48.722Z,20.60
2017-12-02T11:01:17.007Z,21.35
2017-12-02T11:03:45.302Z,19.23
2017-12-02T11:06:13.687Z,18.17
2017-12-02T11:11:15.512Z,20.40
2017-12-02T11:13:43.839Z,22.07
2017-12-02T11:16:18.135Z,23.50
2017-12-02T11:18:46.485Z,20.20
2017-12-02T11:21:14.740Z,18.23
2017-12-02T11:23:43.216Z,22.10
2017-12-02T11:26:11.507Z,19.15
2017-12-02T11:28:39.838Z,19.17
2017-12-02T11:31:08.153Z,17.43
2017-12-02T11:33:36.424Z,17.05
2017-12-02T11:36:05.458Z,16.80
2017-12-02T11:38:33.731Z,16.90
2017-12-02T11:41:02.069Z,18.00
2017-12-02T11:43:30.392Z,17.07
2017-12-02T11:45:58.707Z,17.30
2017-12-02T11:48:26.993Z,14.70
2017-12-02T11:50:55.311Z,16.03
2017-12-02T11:53:23.592Z,19.02
2017-12-02T11:55:51.893Z,16.70
2017-12-02T11:58:20.183Z,16.75
2017-12-02T12:00:48.551Z,20.63
2017-12-02T12:03:16.841Z,15.70
2017-12-02T12:05:45.119Z,16.47
2017-12-02T12:08:13.479Z,14.77
2017-12-02T12:10:41.731Z,17.47
2017-12-02T12:13:10.167Z,16.52
2017-12-02T12:15:38.452Z,14.00
2017-12-02T12:18:06.734Z,19.07
2017-12-02T12:20:35.130Z,17.00
2017-12-02T12:23:03.380Z,13.70
2017-12-02T12:25:31.670Z,13.83
2017-12-02T12:27:59.947Z,20.03
2017-12-02T12:30:28.321Z,20.70
2017-12-02T12:32:58.167Z,16.15
2017-12-02T12:35:26.769Z,10.80
2017-12-02T12:37:55.028Z,16.17
2017-12-02T12:40:23.378Z,14.63
2017-12-02T12:42:51.620Z,14.97
2017-12-02T12:45:19.918Z,17.03
2017-12-02T12:47:48.211Z,17.33
2017-12-02T12:50:16.466Z,22.20
2017-12-02T12:52:44.798Z,17.93
2017-12-02T12:55:13.084Z,17.95
2017-12-02T12:57:41.374Z,12.63
2017-12-02T13:00:09.654Z,12.53
2017-12-02T13:02:38.802Z,15.07
2017-12-02T13:05:07.065Z,12.60
2017-12-02T13:07:35.428Z,13.68
2017-12-02T13:10:03.710Z,16.17
2017-12-02T13:12:32.018Z,11.33
2017-12-02T13:15:00.343Z,13.73
2017-12-02T13:17:28.630Z,15.33
2017-12-02T13:19:57.011Z,11.83
2017-12-02T13:22:25.255Z,17.10
2017-12-02T13:24:53.586Z,14.03
2017-12-02T13:27:21.847Z,12.97
2017-12-02T13:29:50.133Z,12.70
2017-12-02T13:32:18.457Z,13.13
2017-12-02T13:34:46.853Z,14.10
2017-12-02T13:37:15.328Z,12.30
2017-12-02T13:39:43.595Z,12.23
2017-12-02T13:42:14.239Z,11.57
2017-12-02T13:44:42.546Z,12.73
2017-12-02T13:47:10.844Z,14.40
2017-12-02T13:49:39.170Z,14.33
2017-12-02T13:52:07.437Z,16.83
2017-12-02T13:54:35.784Z,12.93
2017-12-02T13:57:04.928Z,13.95
2017-12-02T13:59:33.252Z,11.03
2017-12-02T14:02:01.576Z,21.25
2017-12-02T14:04:29.850Z,19.30
2017-12-02T14:06:58.131Z,13.67
2017-12-02T14:09:26.483Z,19.80
2017-12-02T14:11:54.766Z,14.93
2017-12-02T14:14:23.063Z,13.73
2017-12-02T14:16:51.415Z,12.67
2017-12-02T14:19:19.714Z,16.20
2017-12-02T14:21:48.040Z,22.03
2017-12-02T14:24:16.356Z,13.25
2017-12-02T14:26:46.545Z,14.93
2017-12-02T14:29:14.852Z,18.93
2017-12-02T14:31:43.131Z,12.10
2017-12-02T14:34:11.411Z,14.40
2017-12-02T14:36:39.679Z,14.27
2017-12-02T14:39:08.044Z,20.47
2017-12-02T14:41:36.397Z,17.70
2017-12-02T14:44:04.730Z,13.73
2017-12-02T14:46:33.083Z,14.70
2017-12-02T14:49:01.412Z,14.17
2017-12-02T14:51:29.698Z,16.95
2017-12-02T14:53:58.023Z,16.40
2017-12-02T14:56:27.108Z,18.90
2017-12-02T14:58:55.411Z,18.53
2017-12-02T15:01:23.672Z,12.67
2017-12-02T15:03:51.981Z,15.93
2017-12-02T15:06:20.316Z,15.85
2017-12-02T15:08:48.688Z,14.40
2017-12-02T15:11:16.973Z,19.70
2017-12-02T15:13:45.245Z,9.17
2017-12-02T15:16:13.644Z,10.25
2017-12-02T15:18:41.924Z,13.53
2017-12-02T15:21:11.132Z,13.27
2017-12-02T15:23:39.431Z,14.00
2017-12-02T15:26:07.753Z,14.40
2017-12-02T15:28:36.507Z,17.33
2017-12-02T15:31:05.328Z,16.23
2017-12-02T15:33:33.598Z,17.10
2017-12-02T15:36:01.892Z,16.00
2017-12-02T15:38:30.223Z,16.60
2017-12-02T15:40:58.509Z,15.40
2017-12-02T15:43:26.819Z,20.07
2017-12-02T15:45:55.109Z,14.97
2017-12-02T15:48:23.426Z,12.70
2017-12-02T15:50:51.741Z,14.40
2017-12-02T15:53:20.011Z,18.10
2017-12-02T15:55:50.856Z,13.97
2017-12-02T15:58:19.173Z,15.67
2017-12-02T16:00:47.493Z,17.33
2017-12-02T16:03:15.796Z,14.40
2017-12-02T16:05:44.351Z,14.07
2017-12-02T16:08:12.652Z,14.77
2017-12-02T16:10:40.983Z,14.17
2017-12-02T16:13:11.059Z,14.78
2017-12-02T16:15:39.339Z,14.97
2017-12-02T16:18:07.663Z,14.95
2017-12-02T16:20:36.185Z,17.20
2017-12-02T16:23:05.000Z,14.60
2017-12-02T16:25:33.335Z,18.87
2017-12-02T16:28:01.621Z,16.07
2017-12-02T16:30:29.962Z,17.60
2017-12-02T16:32:58.269Z,15.17
2017-12-02T16:35:27.509Z,18.60
2017-12-02T16:37:55.775Z,17.43
2017-12-02T16:40:24.103Z,16.30
2017-12-02T16:42:52.395Z,15.57
2017-12-02T16:45:20.697Z,19.50
2017-12-02T16:47:49.050Z,18.80
2017-12-02T16:50:17.370Z,17.83
2017-12-02T16:52:45.669Z,18.40
2017-12-02T16:55:13.982Z,16.70
2017-12-02T16:57:42.243Z,16.10
2017-12-02T17:00:10.528Z,17.02
2017-12-02T17:02:38.894Z,16.43
2017-12-02T17:05:07.124Z,12.70
2017-12-02T17:07:35.716Z,17.47
2017-12-02T17:10:04.105Z,19.63
2017-12-02T17:12:34.478Z,20.07
2017-12-02T17:15:02.812Z,17.50
2017-12-02T17:17:31.218Z,28.00
2017-12-02T17:19:59.506Z,21.25
2017-12-02T17:22:27.791Z,17.80
2017-12-02T17:24:56.096Z,14.33
2017-12-02T17:27:25.025Z,21.97
2017-12-02T17:29:53.351Z,19.23
2017-12-02T17:32:21.738Z,19.97
2017-12-02T17:34:51.767Z,18.90
2017-12-02T17:37:20.113Z,20.05
2017-12-02T17:39:49.164Z,17.10
2017-12-02T17:42:19.077Z,18.90
2017-12-02T17:44:47.579Z,25.37
2017-12-02T17:47:16.853Z,18.07
2017-12-02T17:49:56.288Z,17.13
2017-12-02T17:52:28.322Z,17.20
2017-12-02T17:54:56.806Z,15.87
2017-12-02T17:58:29.146Z,16.40
2017-12-02T18:01:06.219Z,17.90
2017-12-02T18:03:35.798Z,17.77
2017-12-02T18:06:04.139Z,21.30
2017-12-02T18:08:32.427Z,18.40
2017-12-02T18:11:00.763Z,17.70
2017-12-02T18:13:29.244Z,18.30
2017-12-02T18:15:57.508Z,22.23
2017-12-02T18:18:25.809Z,20.20
2017-12-02T18:20:54.156Z,19.00
2017-12-02T18:23:22.461Z,18.90
2017-12-02T18:25:51.661Z,22.27
2017-12-02T18:28:19.949Z,22.97
2017-12-02T18:30:48.226Z,21.13
2017-12-02T18:33:16.519Z,21.83
2017-12-02T18:35:44.828Z,18.17
2017-12-02T18:38:13.158Z,15.37
2017-12-02T18:40:41.472Z,15.87
2017-12-02T18:43:09.778Z,17.85
2017-12-02T18:45:38.992Z,16.08
2017-12-02T18:48:07.270Z,21.25
2017-12-02T18:50:35.581Z,18.17
2017-12-02T18:53:04.769Z,17.03
2017-12-02T18:55:33.047Z,21.30
2017-12-02T18:58:01.319Z,14.27
2017-12-02T19:00:29.684Z,17.20
2017-12-02T19:02:57.988Z,15.23
2017-12-02T19:05:26.305Z,16.43
2017-12-02T19:07:54.592Z,16.52
2017-12-02T19:10:22.892Z,19.27
2017-12-02T19:12:51.203Z,17.53
2017-12-02T19:15:19.466Z,17.17
2017-12-02T19:17:47.817Z,19.30
2017-12-02T19:20:16.088Z,17.37
2017-12-02T19:22:44.416Z,18.43
2017-12-02T19:25:12.752Z,19.23
2017-12-02T19:27:41.138Z,18.20
2017-12-02T19:30:09.445Z,16.12
2017-12-02T19:32:37.784Z,18.93
2017-12-02T19:35:06.368Z,20.17
2017-12-02T19:37:34.638Z,18.70
2017-12-02T19:40:03.003Z,19.73
2017-12-02T19:42:31.272Z,21.80
2017-12-02T19:44:59.566Z,20.13
2017-12-02T19:47:27.859Z,17.70
2017-12-02T19:49:56.204Z,22.92
2017-12-02T19:52:24.499Z,23.03
2017-12-02T19:54:52.777Z,21.33
2017-12-02T19:57:21.067Z,18.02
2017-12-02T19:59:49.371Z,18.50
2017-12-02T20:02:17.692Z,18.90
2017-12-02T20:04:46.598Z,18.20
2017-12-02T20:07:15.155Z,15.75
2017-12-02T20:09:43.430Z,16.73
2017-12-02T20:12:11.751Z,19.83
2017-12-02T20:14:40.084Z,18.17
2017-12-02T20:17:08.371Z,17.57
2017-12-02T20:19:36.684Z,17.07
2017-12-02T20:22:05.410Z,21.90
2017-12-02T20:24:33.708Z,21.17
2017-12-02T20:27:02.012Z,16.73
2017-12-02T20:29:30.324Z,23.50
2017-12-02T20:31:58.621Z,17.50
2017-12-02T20:34:26.903Z,15.73
2017-12-02T20:36:55.168Z,18.00
2017-12-02T20:39:23.503Z,15.53
2017-12-02T20:41:51.808Z,19.13
2017-12-02T20:44:20.126Z,16.62
2017-12-02T20:46:50.875Z,16.57
2017-12-02T20:49:19.214Z,16.83
2017-12-02T20:51:47.496Z,15.40
2017-12-02T20:54:15.789Z,17.80
2017-12-02T20:56:44.099Z,18.03
2017-12-02T20:59:12.925Z,15.03
2017-12-02T21:01:42.762Z,15.73
2017-12-02T21:04:11.028Z,17.27
2017-12-02T21:06:39.354Z,19.43
2017-12-02T21:09:07.672Z,22.23
2017-12-02T21:11:35.955Z,17.20
2017-12-02T21:14:05.303Z,15.32
2017-12-02T21:16:33.681Z,17.37
2017-12-02T21:19:03.116Z,14.47
2017-12-02T21:21:31.825Z,16.47
2017-12-02T21:24:03.719Z,13.30
2017-12-02T21:26:32.049Z,29.63
2017-12-02T21:29:00.454Z,15.90
2017-12-02T21:31:28.787Z,26.43
2017-12-02T21:33:57.918Z,19.70
2017-12-02T21:36:26.946Z,16.27
2017-12-02T21:38:55.335Z,16.33
2017-12-02T21:41:23.739Z,15.07
2017-12-02T21:43:52.114Z,15.70
2017-12-02T21:46:20.417Z,10.25
2017-12-02T21:48:48.735Z,10.97
2017-12-02T21:51:17.246Z,13.43
2017-12-02T21:53:45.599Z,12.50
2017-12-02T21:56:13.886Z,11.40
2017-12-02T21:58:42.176Z,13.77
2017-12-02T22:01:10.454Z,11.00
2017-12-02T22:03:38.826Z,13.90
2017-12-02T22:06:07.144Z,10.23
2017-12-02T22:08:35.563Z,11.17
2017-12-02T22:11:04.421Z,10.40
2017-12-02T22:13:32.672Z,7.60
2017-12-02T22:16:00.971Z,9.47
2017-12-02T22:18:29.722Z,9.60
2017-12-02T22:20:58.020Z,9.30
2017-12-02T22:23:26.293Z,10.40
2017-12-02T22:25:54.624Z,11.13
2017-12-02T22:28:22.955Z,10.88
2017-12-02T22:30:51.243Z,10.53
2017-12-02T22:33:19.562Z,10.13
2017-12-02T22:35:47.839Z,8.17
2017-12-02T22:38:16.170Z,12.20
2017-12-02T22:40:44.786Z,9.80
2017-12-02T22:43:13.101Z,11.50
2017-12-02T22:45:41.414Z,10.30
2017-12-02T22:48:09.700Z,16.60
2017-12-02T22:50:37.996Z,8.93
2017-12-02T22:53:06.288Z,17.37
2017-12-02T22:55:34.594Z,11.13
2017-12-02T22:58:02.930Z,9.80
2017-12-02T23:00:31.233Z,10.57
2017-12-02T23:02:59.483Z,11.97
2017-12-02T23:05:27.759Z,10.77
2017-12-02T23:07:56.080Z,11.93
2017-12-02T23:10:24.375Z,10.80
2017-12-02T23:12:52.681Z,7.83
2017-12-02T23:15:20.934Z,10.02
2017-12-02T23:17:49.266Z,10.68
2017-12-02T23:20:17.547Z,11.13
2017-12-02T23:22:45.863Z,11.73
2017-12-02T23:25:14.728Z,11.40
2017-12-02T23:27:43.090Z,11.37
2017-12-02T23:30:12.051Z,14.73
2017-12-02T23:32:40.333Z,10.27
2017-12-02T23:35:08.703Z,10.45
2017-12-02T23:37:36.997Z,12.13
2017-12-02T23:40:05.331Z,9.53
2017-12-02T23:42:33.646Z,11.67
2017-12-02T23:45:01.923Z,13.40
2017-12-02T23:47:30.489Z,9.90
2017-12-02T23:49:58.781Z,12.13
2017-12-02T23:52:27.085Z,8.90
2017-12-02T23:54:55.409Z,9.10
2017-12-02T23:57:24.576Z,8.70
2017-12-02T23:59:52.900Z,7.87
